LFRV/VNE METAR and TAF weather

Enter ICAO airport designator
Station Type Date Time Source
LFRV METAR 2022/06/29 01:00 UTC NOAA

LFRV 290100Z AUTO 19007KT 9999 OVC016 16/13 Q1014


Station Type Date Time Source
LFRV Decoded METAR 2022/06/29 01:00 UTC NOAA

Station name not available
Jun 28, 2022 - 09:00 PM EDT / 2022.06.29 0100 UTC
Wind: from the S (190 degrees) at 8 MPH (7 KT):0
Visibility: greater than 7 mile(s):0
Sky conditions: overcast
Temperature: 60 F (16 C)
Dew Point: 55 F (13 C)
Relative Humidity: 82%
Pressure (altimeter): 29.94 in. Hg (1014 hPa)
ob: LFRV 290100Z AUTO 19007KT 9999 OVC016 16/13 Q1014
cycle: 1

Station Type Date Time Source
LFRV TAF UTC NOAA

Error!

Example: see airport list